sensor_id;sensor_type;location;lat;lon;timestamp;P1;durP1;ratioP1;P2;durP2;ratioP2
39454;SDS011;25155;41.890;23.446;2023-02-28T00:00:24;6.30;;;2.45;;
39454;SDS011;25155;41.890;23.446;2023-02-28T00:02:52;3.90;;;2.00;;
39454;SDS011;25155;41.890;23.446;2023-02-28T00:05:20;7.85;;;2.40;;
39454;SDS011;25155;41.890;23.446;2023-02-28T00:07:49;4.60;;;2.10;;
39454;SDS011;25155;41.890;23.446;2023-02-28T00:10:19;9.23;;;2.70;;
39454;SDS011;25155;41.890;23.446;2023-02-28T00:12:48;4.60;;;2.10;;
39454;SDS011;25155;41.890;23.446;2023-02-28T00:15:16;4.63;;;1.98;;
39454;SDS011;25155;41.890;23.446;2023-02-28T00:17:44;6.57;;;2.38;;
39454;SDS011;25155;41.890;23.446;2023-02-28T00:20:11;7.10;;;2.58;;
39454;SDS011;25155;41.890;23.446;2023-02-28T00:22:41;6.32;;;2.78;;
39454;SDS011;25155;41.890;23.446;2023-02-28T00:25:10;5.78;;;2.42;;
39454;SDS011;25155;41.890;23.446;2023-02-28T00:27:40;13.82;;;3.88;;
39454;SDS011;25155;41.890;23.446;2023-02-28T00:30:09;7.50;;;3.25;;
39454;SDS011;25155;41.890;23.446;2023-02-28T00:32:38;8.55;;;3.30;;
39454;SDS011;25155;41.890;23.446;2023-02-28T00:35:06;8.10;;;3.03;;
39454;SDS011;25155;41.890;23.446;2023-02-28T00:37:34;5.03;;;2.45;;
39454;SDS011;25155;41.890;23.446;2023-02-28T00:40:01;5.90;;;2.45;;
39454;SDS011;25155;41.890;23.446;2023-02-28T00:42:32;6.72;;;2.40;;
39454;SDS011;25155;41.890;23.446;2023-02-28T00:45:01;7.68;;;2.47;;
39454;SDS011;25155;41.890;23.446;2023-02-28T00:47:30;4.68;;;2.25;;
39454;SDS011;25155;41.890;23.446;2023-02-28T00:49:57;13.25;;;3.83;;
39454;SDS011;25155;41.890;23.446;2023-02-28T00:52:24;12.27;;;4.03;;
39454;SDS011;25155;41.890;23.446;2023-02-28T00:54:51;8.48;;;3.70;;
39454;SDS011;25155;41.890;23.446;2023-02-28T00:57:19;5.60;;;3.17;;
39454;SDS011;25155;41.890;23.446;2023-02-28T00:59:46;7.60;;;4.72;;
39454;SDS011;25155;41.890;23.446;2023-02-28T01:02:15;10.48;;;5.43;;
39454;SDS011;25155;41.890;23.446;2023-02-28T01:04:43;9.15;;;4.60;;
39454;SDS011;25155;41.890;23.446;2023-02-28T01:07:10;10.40;;;5.53;;
39454;SDS011;25155;41.890;23.446;2023-02-28T01:09:39;10.43;;;6.20;;
39454;SDS011;25155;41.890;23.446;2023-02-28T01:12:07;12.05;;;6.20;;
39454;SDS011;25155;41.890;23.446;2023-02-28T01:14:35;11.05;;;5.00;;
39454;SDS011;25155;41.890;23.446;2023-02-28T01:17:02;8.38;;;4.75;;
39454;SDS011;25155;41.890;23.446;2023-02-28T01:19:32;13.60;;;6.20;;
39454;SDS011;25155;41.890;23.446;2023-02-28T01:22:01;12.05;;;5.28;;
39454;SDS011;25155;41.890;23.446;2023-02-28T01:24:29;8.73;;;5.05;;
39454;SDS011;25155;41.890;23.446;2023-02-28T01:26:57;7.22;;;4.40;;
39454;SDS011;25155;41.890;23.446;2023-02-28T01:29:24;13.93;;;4.88;;
39454;SDS011;25155;41.890;23.446;2023-02-28T01:31:51;12.02;;;4.30;;
39454;SDS011;25155;41.890;23.446;2023-02-28T01:34:18;8.77;;;3.67;;
39454;SDS011;25155;41.890;23.446;2023-02-28T01:36:47;7.22;;;3.80;;
39454;SDS011;25155;41.890;23.446;2023-02-28T01:39:15;10.38;;;5.10;;
39454;SDS011;25155;41.890;23.446;2023-02-28T01:41:43;10.07;;;5.13;;
39454;SDS011;25155;41.890;23.446;2023-02-28T01:47:14;8.50;;;3.72;;
39454;SDS011;25155;41.890;23.446;2023-02-28T01:49:42;6.80;;;3.35;;
39454;SDS011;25155;41.890;23.446;2023-02-28T01:52:11;9.57;;;3.47;;
39454;SDS011;25155;41.890;23.446;2023-02-28T01:54:43;6.15;;;3.25;;
39454;SDS011;25155;41.890;23.446;2023-02-28T02:00:05;10.02;;;3.63;;
39454;SDS011;25155;41.890;23.446;2023-02-28T02:02:55;8.63;;;3.80;;
39454;SDS011;25155;41.890;23.446;2023-02-28T02:05:26;4.97;;;2.70;;
39454;SDS011;25155;41.890;23.446;2023-02-28T02:07:58;6.57;;;3.13;;
39454;SDS011;25155;41.890;23.446;2023-02-28T02:10:31;4.78;;;2.72;;
39454;SDS011;25155;41.890;23.446;2023-02-28T02:16:04;5.32;;;2.53;;
39454;SDS011;25155;41.890;23.446;2023-02-28T02:18:39;7.13;;;3.17;;
39454;SDS011;25155;41.890;23.446;2023-02-28T02:21:34;6.22;;;3.40;;
39454;SDS011;25155;41.890;23.446;2023-02-28T02:24:31;6.97;;;3.22;;
39454;SDS011;25155;41.890;23.446;2023-02-28T02:27:36;12.05;;;4.32;;
39454;SDS011;25155;41.890;23.446;2023-02-28T02:36:32;7.28;;;3.20;;
39454;SDS011;25155;41.890;23.446;2023-02-28T02:39:04;7.47;;;2.90;;
39454;SDS011;25155;41.890;23.446;2023-02-28T02:41:38;12.00;;;3.80;;
39454;SDS011;25155;41.890;23.446;2023-02-28T02:44:11;6.78;;;2.90;;
39454;SDS011;25155;41.890;23.446;2023-02-28T02:46:45;6.93;;;2.85;;
39454;SDS011;25155;41.890;23.446;2023-02-28T02:49:16;14.63;;;4.15;;
39454;SDS011;25155;41.890;23.446;2023-02-28T02:51:54;10.82;;;3.90;;
39454;SDS011;25155;41.890;23.446;2023-02-28T02:54:25;7.65;;;3.42;;
39454;SDS011;25155;41.890;23.446;2023-02-28T02:56:56;9.70;;;3.60;;
39454;SDS011;25155;41.890;23.446;2023-02-28T02:59:28;12.18;;;4.35;;
39454;SDS011;25155;41.890;23.446;2023-02-28T03:01:57;6.63;;;3.22;;
39454;SDS011;25155;41.890;23.446;2023-02-28T03:04:30;9.05;;;3.42;;
39454;SDS011;25155;41.890;23.446;2023-02-28T03:07:05;5.55;;;2.80;;
39454;SDS011;25155;41.890;23.446;2023-02-28T03:09:33;7.65;;;3.30;;
39454;SDS011;25155;41.890;23.446;2023-02-28T03:12:02;9.43;;;3.63;;
39454;SDS011;25155;41.890;23.446;2023-02-28T03:14:33;7.35;;;2.80;;
39454;SDS011;25155;41.890;23.446;2023-02-28T03:17:17;9.23;;;3.78;;
39454;SDS011;25155;41.890;23.446;2023-02-28T03:20:01;9.38;;;3.25;;
39454;SDS011;25155;41.890;23.446;2023-02-28T03:22:45;7.95;;;2.92;;
39454;SDS011;25155;41.890;23.446;2023-02-28T03:25:20;15.45;;;3.15;;
39454;SDS011;25155;41.890;23.446;2023-02-28T03:27:55;7.20;;;3.10;;
39454;SDS011;25155;41.890;23.446;2023-02-28T03:30:32;5.78;;;2.50;;
39454;SDS011;25155;41.890;23.446;2023-02-28T03:33:06;6.97;;;2.13;;
39454;SDS011;25155;41.890;23.446;2023-02-28T03:35:39;5.95;;;2.40;;
39454;SDS011;25155;41.890;23.446;2023-02-28T03:38:12;4.63;;;2.38;;
39454;SDS011;25155;41.890;23.446;2023-02-28T03:40:45;7.53;;;2.60;;
39454;SDS011;25155;41.890;23.446;2023-02-28T03:43:18;5.43;;;2.65;;
39454;SDS011;25155;41.890;23.446;2023-02-28T03:45:49;6.63;;;2.42;;
39454;SDS011;25155;41.890;23.446;2023-02-28T03:48:19;5.47;;;2.55;;
39454;SDS011;25155;41.890;23.446;2023-02-28T03:50:51;5.43;;;2.17;;
39454;SDS011;25155;41.890;23.446;2023-02-28T03:53:27;10.15;;;2.97;;
39454;SDS011;25155;41.890;23.446;2023-02-28T03:56:00;6.63;;;3.22;;
39454;SDS011;25155;41.890;23.446;2023-02-28T03:58:34;7.68;;;3.97;;
39454;SDS011;25155;41.890;23.446;2023-02-28T04:01:07;7.18;;;3.92;;
39454;SDS011;25155;41.890;23.446;2023-02-28T04:03:38;12.77;;;6.60;;
39454;SDS011;25155;41.890;23.446;2023-02-28T04:06:07;7.90;;;4.40;;
39454;SDS011;25155;41.890;23.446;2023-02-28T04:08:42;6.60;;;3.30;;
39454;SDS011;25155;41.890;23.446;2023-02-28T04:11:12;12.95;;;3.63;;
39454;SDS011;25155;41.890;23.446;2023-02-28T04:13:47;5.40;;;2.80;;
39454;SDS011;25155;41.890;23.446;2023-02-28T04:16:17;7.45;;;2.60;;
39454;SDS011;25155;41.890;23.446;2023-02-28T04:18:45;4.70;;;2.67;;
39454;SDS011;25155;41.890;23.446;2023-02-28T04:21:12;6.30;;;2.97;;
39454;SDS011;25155;41.890;23.446;2023-02-28T04:23:41;5.22;;;2.53;;
39454;SDS011;25155;41.890;23.446;2023-02-28T04:26:08;8.52;;;3.72;;
39454;SDS011;25155;41.890;23.446;2023-02-28T04:28:36;10.65;;;3.42;;
39454;SDS011;25155;41.890;23.446;2023-02-28T04:31:05;7.47;;;3.38;;
39454;SDS011;25155;41.890;23.446;2023-02-28T04:33:32;9.43;;;3.65;;
39454;SDS011;25155;41.890;23.446;2023-02-28T04:36:00;7.68;;;3.28;;
39454;SDS011;25155;41.890;23.446;2023-02-28T04:38:29;5.18;;;3.05;;
39454;SDS011;25155;41.890;23.446;2023-02-28T04:40:58;5.00;;;2.58;;
39454;SDS011;25155;41.890;23.446;2023-02-28T04:43:26;8.40;;;3.20;;
39454;SDS011;25155;41.890;23.446;2023-02-28T04:45:54;10.57;;;4.10;;
39454;SDS011;25155;41.890;23.446;2023-02-28T04:48:22;10.52;;;4.18;;
39454;SDS011;25155;41.890;23.446;2023-02-28T04:50:50;6.13;;;3.50;;
39454;SDS011;25155;41.890;23.446;2023-02-28T04:53:18;6.68;;;2.97;;
39454;SDS011;25155;41.890;23.446;2023-02-28T04:55:45;6.10;;;2.78;;
39454;SDS011;25155;41.890;23.446;2023-02-28T04:58:14;5.65;;;2.50;;
39454;SDS011;25155;41.890;23.446;2023-02-28T05:00:41;6.78;;;2.53;;
39454;SDS011;25155;41.890;23.446;2023-02-28T05:03:09;5.13;;;2.60;;
39454;SDS011;25155;41.890;23.446;2023-02-28T05:05:36;9.73;;;3.38;;
39454;SDS011;25155;41.890;23.446;2023-02-28T05:08:03;9.73;;;3.72;;
39454;SDS011;25155;41.890;23.446;2023-02-28T05:10:30;5.68;;;3.03;;
39454;SDS011;25155;41.890;23.446;2023-02-28T05:12:58;6.47;;;3.13;;
39454;SDS011;25155;41.890;23.446;2023-02-28T05:15:27;9.48;;;4.55;;
39454;SDS011;25155;41.890;23.446;2023-02-28T05:17:54;8.55;;;3.92;;
39454;SDS011;25155;41.890;23.446;2023-02-28T05:20:22;13.07;;;4.38;;
39454;SDS011;25155;41.890;23.446;2023-02-28T05:22:50;8.75;;;4.40;;
39454;SDS011;25155;41.890;23.446;2023-02-28T05:25:18;6.28;;;3.53;;
39454;SDS011;25155;41.890;23.446;2023-02-28T05:27:48;7.18;;;3.80;;
39454;SDS011;25155;41.890;23.446;2023-02-28T05:30:16;7.38;;;3.42;;
39454;SDS011;25155;41.890;23.446;2023-02-28T05:32:48;6.15;;;3.45;;
39454;SDS011;25155;41.890;23.446;2023-02-28T05:35:17;6.50;;;3.45;;
39454;SDS011;25155;41.890;23.446;2023-02-28T05:37:45;10.52;;;4.45;;
39454;SDS011;25155;41.890;23.446;2023-02-28T05:40:13;10.95;;;5.30;;
39454;SDS011;25155;41.890;23.446;2023-02-28T05:42:41;12.48;;;6.50;;
39454;SDS011;25155;41.890;23.446;2023-02-28T05:45:09;10.70;;;6.93;;
39454;SDS011;25155;41.890;23.446;2023-02-28T05:47:37;17.90;;;10.20;;
39454;SDS011;25155;41.890;23.446;2023-02-28T05:50:07;16.08;;;10.18;;
39454;SDS011;25155;41.890;23.446;2023-02-28T05:52:35;19.98;;;13.98;;
39454;SDS011;25155;41.890;23.446;2023-02-28T05:55:04;31.33;;;21.42;;
39454;SDS011;25155;41.890;23.446;2023-02-28T05:57:32;38.38;;;25.27;;
39454;SDS011;25155;41.890;23.446;2023-02-28T05:59:59;40.80;;;26.30;;
39454;SDS011;25155;41.890;23.446;2023-02-28T06:02:26;29.05;;;19.40;;
39454;SDS011;25155;41.890;23.446;2023-02-28T06:04:53;42.05;;;27.35;;
39454;SDS011;25155;41.890;23.446;2023-02-28T06:07:22;119.28;;;76.57;;
39454;SDS011;25155;41.890;23.446;2023-02-28T06:09:49;82.38;;;54.13;;
39454;SDS011;25155;41.890;23.446;2023-02-28T06:12:16;53.10;;;38.15;;
39454;SDS011;25155;41.890;23.446;2023-02-28T06:14:43;44.90;;;29.20;;
39454;SDS011;25155;41.890;23.446;2023-02-28T06:17:11;33.90;;;24.38;;
39454;SDS011;25155;41.890;23.446;2023-02-28T06:19:38;42.80;;;27.33;;
39454;SDS011;25155;41.890;23.446;2023-02-28T06:22:07;34.70;;;23.90;;
39454;SDS011;25155;41.890;23.446;2023-02-28T06:24:35;37.28;;;25.77;;
39454;SDS011;25155;41.890;23.446;2023-02-28T06:27:02;46.13;;;28.35;;
39454;SDS011;25155;41.890;23.446;2023-02-28T06:29:30;49.45;;;30.85;;
39454;SDS011;25155;41.890;23.446;2023-02-28T06:31:57;37.95;;;26.30;;
39454;SDS011;25155;41.890;23.446;2023-02-28T06:34:25;35.40;;;24.02;;
39454;SDS011;25155;41.890;23.446;2023-02-28T06:36:52;34.70;;;23.05;;
39454;SDS011;25155;41.890;23.446;2023-02-28T06:39:19;53.47;;;35.13;;
39454;SDS011;25155;41.890;23.446;2023-02-28T06:41:48;45.53;;;29.25;;
39454;SDS011;25155;41.890;23.446;2023-02-28T06:44:17;35.33;;;24.35;;
39454;SDS011;25155;41.890;23.446;2023-02-28T06:46:44;36.08;;;24.77;;
39454;SDS011;25155;41.890;23.446;2023-02-28T06:49:12;49.42;;;31.70;;
39454;SDS011;25155;41.890;23.446;2023-02-28T06:51:41;45.65;;;30.38;;
39454;SDS011;25155;41.890;23.446;2023-02-28T06:54:10;35.30;;;23.95;;
39454;SDS011;25155;41.890;23.446;2023-02-28T06:56:37;37.83;;;25.73;;
39454;SDS011;25155;41.890;23.446;2023-02-28T06:59:06;35.17;;;24.02;;
39454;SDS011;25155;41.890;23.446;2023-02-28T07:01:33;38.28;;;24.98;;
39454;SDS011;25155;41.890;23.446;2023-02-28T07:04:00;45.85;;;29.70;;
39454;SDS011;25155;41.890;23.446;2023-02-28T07:06:29;49.40;;;30.08;;
39454;SDS011;25155;41.890;23.446;2023-02-28T07:08:56;39.08;;;26.83;;
39454;SDS011;25155;41.890;23.446;2023-02-28T07:11:24;35.67;;;24.48;;
39454;SDS011;25155;41.890;23.446;2023-02-28T07:13:53;32.60;;;20.83;;
39454;SDS011;25155;41.890;23.446;2023-02-28T07:16:22;27.38;;;18.40;;
39454;SDS011;25155;41.890;23.446;2023-02-28T07:18:51;37.75;;;25.73;;
39454;SDS011;25155;41.890;23.446;2023-02-28T07:21:20;36.95;;;26.08;;
39454;SDS011;25155;41.890;23.446;2023-02-28T07:23:47;35.13;;;24.83;;
39454;SDS011;25155;41.890;23.446;2023-02-28T07:26:15;31.98;;;23.35;;
39454;SDS011;25155;41.890;23.446;2023-02-28T07:28:45;37.83;;;27.38;;
39454;SDS011;25155;41.890;23.446;2023-02-28T07:31:15;44.30;;;29.73;;
39454;SDS011;25155;41.890;23.446;2023-02-28T07:33:45;33.83;;;24.15;;
39454;SDS011;25155;41.890;23.446;2023-02-28T07:36:13;26.77;;;18.70;;
39454;SDS011;25155;41.890;23.446;2023-02-28T07:38:43;25.90;;;18.88;;
39454;SDS011;25155;41.890;23.446;2023-02-28T07:41:14;26.30;;;18.08;;
39454;SDS011;25155;41.890;23.446;2023-02-28T07:56:07;15.90;;;11.82;;
39454;SDS011;25155;41.890;23.446;2023-02-28T07:58:36;31.45;;;18.05;;
39454;SDS011;25155;41.890;23.446;2023-02-28T08:01:06;24.80;;;15.10;;
39454;SDS011;25155;41.890;23.446;2023-02-28T08:03:34;18.38;;;12.38;;
39454;SDS011;25155;41.890;23.446;2023-02-28T08:06:02;20.02;;;13.65;;
39454;SDS011;25155;41.890;23.446;2023-02-28T08:08:29;22.70;;;13.15;;
39454;SDS011;25155;41.890;23.446;2023-02-28T08:10:58;24.17;;;14.85;;
39454;SDS011;25155;41.890;23.446;2023-02-28T08:13:27;17.20;;;13.18;;
39454;SDS011;25155;41.890;23.446;2023-02-28T08:15:55;27.55;;;17.67;;
39454;SDS011;25155;41.890;23.446;2023-02-28T08:18:23;29.67;;;21.30;;
39454;SDS011;25155;41.890;23.446;2023-02-28T08:20:50;35.22;;;21.90;;
39454;SDS011;25155;41.890;23.446;2023-02-28T08:23:17;34.08;;;21.52;;
39454;SDS011;25155;41.890;23.446;2023-02-28T08:25:44;40.90;;;27.23;;
39454;SDS011;25155;41.890;23.446;2023-02-28T08:28:18;31.73;;;21.90;;
39454;SDS011;25155;41.890;23.446;2023-02-28T08:30:47;27.05;;;19.38;;
39454;SDS011;25155;41.890;23.446;2023-02-28T08:33:14;33.13;;;22.73;;
39454;SDS011;25155;41.890;23.446;2023-02-28T08:35:41;31.85;;;20.25;;
39454;SDS011;25155;41.890;23.446;2023-02-28T08:38:08;37.47;;;25.02;;
39454;SDS011;25155;41.890;23.446;2023-02-28T08:40:36;36.65;;;23.95;;
39454;SDS011;25155;41.890;23.446;2023-02-28T08:43:03;36.72;;;22.88;;
39454;SDS011;25155;41.890;23.446;2023-02-28T08:45:31;31.67;;;22.05;;
39454;SDS011;25155;41.890;23.446;2023-02-28T08:47:59;36.22;;;22.63;;
39454;SDS011;25155;41.890;23.446;2023-02-28T08:50:26;37.30;;;22.52;;
39454;SDS011;25155;41.890;23.446;2023-02-28T08:52:53;32.60;;;20.38;;
39454;SDS011;25155;41.890;23.446;2023-02-28T08:55:20;32.55;;;19.90;;
39454;SDS011;25155;41.890;23.446;2023-02-28T08:57:48;29.42;;;16.83;;
39454;SDS011;25155;41.890;23.446;2023-02-28T09:00:15;23.92;;;14.18;;
39454;SDS011;25155;41.890;23.446;2023-02-28T09:02:42;24.33;;;14.52;;
39454;SDS011;25155;41.890;23.446;2023-02-28T09:05:11;22.75;;;14.00;;
39454;SDS011;25155;41.890;23.446;2023-02-28T09:07:38;21.13;;;12.88;;
39454;SDS011;25155;41.890;23.446;2023-02-28T09:10:06;30.50;;;15.55;;
39454;SDS011;25155;41.890;23.446;2023-02-28T09:12:34;22.60;;;15.25;;
39454;SDS011;25155;41.890;23.446;2023-02-28T09:15:01;33.00;;;16.95;;
39454;SDS011;25155;41.890;23.446;2023-02-28T09:17:29;28.95;;;16.40;;
39454;SDS011;25155;41.890;23.446;2023-02-28T09:19:56;32.28;;;17.25;;
39454;SDS011;25155;41.890;23.446;2023-02-28T09:22:25;27.35;;;14.77;;
39454;SDS011;25155;41.890;23.446;2023-02-28T09:24:53;30.73;;;16.00;;
39454;SDS011;25155;41.890;23.446;2023-02-28T09:27:20;29.92;;;16.25;;
39454;SDS011;25155;41.890;23.446;2023-02-28T09:29:48;26.40;;;14.90;;
39454;SDS011;25155;41.890;23.446;2023-02-28T09:32:15;25.20;;;13.50;;
39454;SDS011;25155;41.890;23.446;2023-02-28T09:34:43;32.70;;;14.65;;
39454;SDS011;25155;41.890;23.446;2023-02-28T09:37:10;29.40;;;13.68;;
39454;SDS011;25155;41.890;23.446;2023-02-28T09:39:39;17.75;;;11.70;;
39454;SDS011;25155;41.890;23.446;2023-02-28T09:42:11;31.58;;;12.98;;
39454;SDS011;25155;41.890;23.446;2023-02-28T09:44:47;26.33;;;11.90;;
39454;SDS011;25155;41.890;23.446;2023-02-28T09:47:18;30.73;;;12.88;;
39454;SDS011;25155;41.890;23.446;2023-02-28T09:49:53;20.52;;;10.65;;
39454;SDS011;25155;41.890;23.446;2023-02-28T09:52:24;34.15;;;13.18;;
39454;SDS011;25155;41.890;23.446;2023-02-28T09:54:57;34.58;;;11.43;;
39454;SDS011;25155;41.890;23.446;2023-02-28T09:57:32;21.98;;;10.40;;
39454;SDS011;25155;41.890;23.446;2023-02-28T10:00:06;31.27;;;11.40;;
39454;SDS011;25155;41.890;23.446;2023-02-28T10:05:31;23.33;;;9.95;;
39454;SDS011;25155;41.890;23.446;2023-02-28T10:08:05;15.40;;;7.15;;
39454;SDS011;25155;41.890;23.446;2023-02-28T10:10:40;20.70;;;8.30;;
39454;SDS011;25155;41.890;23.446;2023-02-28T10:13:17;15.18;;;6.82;;
39454;SDS011;25155;41.890;23.446;2023-02-28T10:15:51;17.30;;;6.35;;
39454;SDS011;25155;41.890;23.446;2023-02-28T10:18:23;18.55;;;6.43;;
39454;SDS011;25155;41.890;23.446;2023-02-28T10:20:53;15.30;;;5.93;;
39454;SDS011;25155;41.890;23.446;2023-02-28T10:23:23;45.38;;;11.15;;
39454;SDS011;25155;41.890;23.446;2023-02-28T10:28:25;20.58;;;7.45;;
39454;SDS011;25155;41.890;23.446;2023-02-28T10:30:56;29.60;;;7.77;;
39454;SDS011;25155;41.890;23.446;2023-02-28T10:33:25;18.50;;;6.88;;
39454;SDS011;25155;41.890;23.446;2023-02-28T10:35:56;19.05;;;6.40;;
39454;SDS011;25155;41.890;23.446;2023-02-28T10:38:25;19.73;;;6.85;;
39454;SDS011;25155;41.890;23.446;2023-02-28T10:41:04;15.15;;;5.18;;
39454;SDS011;25155;41.890;23.446;2023-02-28T10:43:32;11.30;;;4.10;;
39454;SDS011;25155;41.890;23.446;2023-02-28T10:46:01;10.80;;;3.88;;
39454;SDS011;25155;41.890;23.446;2023-02-28T10:48:34;27.90;;;6.25;;
39454;SDS011;25155;41.890;23.446;2023-02-28T10:51:04;11.68;;;4.05;;
39454;SDS011;25155;41.890;23.446;2023-02-28T10:53:35;18.58;;;5.75;;
39454;SDS011;25155;41.890;23.446;2023-02-28T10:56:15;16.48;;;5.30;;
39454;SDS011;25155;41.890;23.446;2023-02-28T10:58:48;15.93;;;5.22;;
39454;SDS011;25155;41.890;23.446;2023-02-28T11:01:20;12.48;;;4.22;;
39454;SDS011;25155;41.890;23.446;2023-02-28T11:03:49;13.25;;;5.07;;
39454;SDS011;25155;41.890;23.446;2023-02-28T11:06:19;22.88;;;6.43;;
39454;SDS011;25155;41.890;23.446;2023-02-28T11:08:49;25.90;;;5.78;;
39454;SDS011;25155;41.890;23.446;2023-02-28T11:11:21;13.70;;;5.10;;
39454;SDS011;25155;41.890;23.446;2023-02-28T11:13:51;17.42;;;5.45;;
39454;SDS011;25155;41.890;23.446;2023-02-28T11:16:20;22.67;;;6.15;;
39454;SDS011;25155;41.890;23.446;2023-02-28T11:18:56;26.90;;;6.63;;
39454;SDS011;25155;41.890;23.446;2023-02-28T11:21:25;19.45;;;6.63;;
39454;SDS011;25155;41.890;23.446;2023-02-28T11:23:56;18.13;;;5.57;;
39454;SDS011;25155;41.890;23.446;2023-02-28T11:26:37;16.15;;;5.85;;
39454;SDS011;25155;41.890;23.446;2023-02-28T11:29:16;8.70;;;4.40;;
39454;SDS011;25155;41.890;23.446;2023-02-28T11:34:45;14.68;;;4.40;;
39454;SDS011;25155;41.890;23.446;2023-02-28T11:37:25;16.40;;;5.68;;
39454;SDS011;25155;41.890;23.446;2023-02-28T11:39:55;19.45;;;5.97;;
39454;SDS011;25155;41.890;23.446;2023-02-28T11:45:22;16.73;;;5.47;;
39454;SDS011;25155;41.890;23.446;2023-02-28T11:48:01;11.93;;;5.05;;
39454;SDS011;25155;41.890;23.446;2023-02-28T11:50:42;17.42;;;4.97;;
39454;SDS011;25155;41.890;23.446;2023-02-28T11:53:28;14.23;;;4.57;;
39454;SDS011;25155;41.890;23.446;2023-02-28T11:56:15;10.40;;;4.57;;
39454;SDS011;25155;41.890;23.446;2023-02-28T11:58:51;19.58;;;5.25;;
39454;SDS011;25155;41.890;23.446;2023-02-28T12:01:28;12.57;;;4.45;;
39454;SDS011;25155;41.890;23.446;2023-02-28T12:04:10;27.05;;;7.10;;
39454;SDS011;25155;41.890;23.446;2023-02-28T12:09:20;11.93;;;4.50;;
39454;SDS011;25155;41.890;23.446;2023-02-28T12:12:01;16.92;;;5.15;;
39454;SDS011;25155;41.890;23.446;2023-02-28T12:14:45;29.05;;;7.55;;
39454;SDS011;25155;41.890;23.446;2023-02-28T12:17:37;14.00;;;5.43;;
39454;SDS011;25155;41.890;23.446;2023-02-28T12:20:18;23.92;;;6.07;;
39454;SDS011;25155;41.890;23.446;2023-02-28T12:23:00;20.17;;;6.57;;
39454;SDS011;25155;41.890;23.446;2023-02-28T12:25:45;16.75;;;5.30;;
39454;SDS011;25155;41.890;23.446;2023-02-28T12:28:21;13.93;;;5.25;;
39454;SDS011;25155;41.890;23.446;2023-02-28T12:30:56;19.40;;;5.93;;
39454;SDS011;25155;41.890;23.446;2023-02-28T12:33:29;20.70;;;6.43;;
39454;SDS011;25155;41.890;23.446;2023-02-28T12:36:03;20.33;;;6.93;;
39454;SDS011;25155;41.890;23.446;2023-02-28T12:38:38;18.63;;;6.53;;
39454;SDS011;25155;41.890;23.446;2023-02-28T12:41:10;22.65;;;6.95;;
39454;SDS011;25155;41.890;23.446;2023-02-28T12:43:41;28.75;;;7.90;;
39454;SDS011;25155;41.890;23.446;2023-02-28T12:46:14;24.50;;;8.15;;
39454;SDS011;25155;41.890;23.446;2023-02-28T12:48:47;17.38;;;6.00;;
39454;SDS011;25155;41.890;23.446;2023-02-28T12:51:16;19.15;;;6.13;;
39454;SDS011;25155;41.890;23.446;2023-02-28T12:53:49;19.75;;;6.03;;
39454;SDS011;25155;41.890;23.446;2023-02-28T12:56:30;15.98;;;5.60;;
39454;SDS011;25155;41.890;23.446;2023-02-28T12:59:07;26.98;;;7.97;;
39454;SDS011;25155;41.890;23.446;2023-02-28T13:04:47;15.65;;;5.85;;
39454;SDS011;25155;41.890;23.446;2023-02-28T13:07:40;20.73;;;6.20;;
39454;SDS011;25155;41.890;23.446;2023-02-28T13:10:19;21.40;;;6.90;;
39454;SDS011;25155;41.890;23.446;2023-02-28T13:12:48;16.98;;;6.03;;
39454;SDS011;25155;41.890;23.446;2023-02-28T13:15:17;22.90;;;6.40;;
39454;SDS011;25155;41.890;23.446;2023-02-28T13:17:52;18.05;;;5.65;;
39454;SDS011;25155;41.890;23.446;2023-02-28T13:20:21;16.55;;;6.20;;
39454;SDS011;25155;41.890;23.446;2023-02-28T13:22:51;22.63;;;6.50;;
39454;SDS011;25155;41.890;23.446;2023-02-28T13:34:46;15.75;;;5.97;;
39454;SDS011;25155;41.890;23.446;2023-02-28T13:37:35;21.45;;;8.05;;
39454;SDS011;25155;41.890;23.446;2023-02-28T13:40:24;21.98;;;6.55;;
39454;SDS011;25155;41.890;23.446;2023-02-28T13:43:02;17.65;;;6.63;;
39454;SDS011;25155;41.890;23.446;2023-02-28T13:45:29;18.52;;;6.93;;
39454;SDS011;25155;41.890;23.446;2023-02-28T13:48:03;18.77;;;6.00;;
39454;SDS011;25155;41.890;23.446;2023-02-28T13:50:36;19.85;;;7.80;;
39454;SDS011;25155;41.890;23.446;2023-02-28T14:10:01;16.58;;;7.57;;
39454;SDS011;25155;41.890;23.446;2023-02-28T14:12:52;16.35;;;7.28;;
39454;SDS011;25155;41.890;23.446;2023-02-28T14:18:19;11.05;;;5.32;;
39454;SDS011;25155;41.890;23.446;2023-02-28T14:20:51;14.27;;;5.95;;
39454;SDS011;25155;41.890;23.446;2023-02-28T14:26:29;12.90;;;5.95;;
39454;SDS011;25155;41.890;23.446;2023-02-28T14:29:17;11.65;;;5.80;;
39454;SDS011;25155;41.890;23.446;2023-02-28T14:31:58;13.85;;;6.93;;
39454;SDS011;25155;41.890;23.446;2023-02-28T14:34:36;12.05;;;5.65;;
39454;SDS011;25155;41.890;23.446;2023-02-28T14:37:11;14.52;;;6.90;;
39454;SDS011;25155;41.890;23.446;2023-02-28T14:44:57;11.23;;;5.82;;
39454;SDS011;25155;41.890;23.446;2023-02-28T14:47:25;10.05;;;6.05;;
39454;SDS011;25155;41.890;23.446;2023-02-28T14:49:57;16.85;;;7.47;;
39454;SDS011;25155;41.890;23.446;2023-02-28T14:52:26;9.25;;;5.95;;
39454;SDS011;25155;41.890;23.446;2023-02-28T14:54:55;9.93;;;5.50;;
39454;SDS011;25155;41.890;23.446;2023-02-28T14:57:26;9.57;;;5.15;;
39454;SDS011;25155;41.890;23.446;2023-02-28T15:00:04;7.88;;;4.43;;
39454;SDS011;25155;41.890;23.446;2023-02-28T15:02:40;4.70;;;3.00;;
39454;SDS011;25155;41.890;23.446;2023-02-28T15:08:03;7.13;;;3.65;;
39454;SDS011;25155;41.890;23.446;2023-02-28T15:10:32;5.03;;;2.60;;
39454;SDS011;25155;41.890;23.446;2023-02-28T15:13:01;4.60;;;2.70;;
39454;SDS011;25155;41.890;23.446;2023-02-28T15:15:35;4.60;;;2.72;;
39454;SDS011;25155;41.890;23.446;2023-02-28T15:18:11;5.25;;;2.60;;
39454;SDS011;25155;41.890;23.446;2023-02-28T15:20:45;7.72;;;2.80;;
39454;SDS011;25155;41.890;23.446;2023-02-28T15:23:12;7.10;;;2.55;;
39454;SDS011;25155;41.890;23.446;2023-02-28T15:25:40;3.28;;;2.10;;
39454;SDS011;25155;41.890;23.446;2023-02-28T15:28:10;4.47;;;2.20;;
39454;SDS011;25155;41.890;23.446;2023-02-28T15:30:49;4.85;;;2.20;;
39454;SDS011;25155;41.890;23.446;2023-02-28T15:33:19;4.20;;;2.38;;
39454;SDS011;25155;41.890;23.446;2023-02-28T15:35:47;3.38;;;1.90;;
39454;SDS011;25155;41.890;23.446;2023-02-28T15:38:17;3.17;;;1.83;;
39454;SDS011;25155;41.890;23.446;2023-02-28T15:40:50;3.65;;;1.88;;
39454;SDS011;25155;41.890;23.446;2023-02-28T15:43:25;2.45;;;1.70;;
39454;SDS011;25155;41.890;23.446;2023-02-28T15:45:56;4.20;;;2.10;;
39454;SDS011;25155;41.890;23.446;2023-02-28T15:48:27;5.28;;;2.35;;
39454;SDS011;25155;41.890;23.446;2023-02-28T15:50:57;3.80;;;2.10;;
39454;SDS011;25155;41.890;23.446;2023-02-28T15:53:30;4.40;;;2.60;;
39454;SDS011;25155;41.890;23.446;2023-02-28T15:58:28;5.30;;;2.30;;
39454;SDS011;25155;41.890;23.446;2023-02-28T16:06:24;3.53;;;2.20;;
39454;SDS011;25155;41.890;23.446;2023-02-28T16:08:58;4.45;;;2.50;;
39454;SDS011;25155;41.890;23.446;2023-02-28T16:11:25;7.70;;;2.22;;
39454;SDS011;25155;41.890;23.446;2023-02-28T16:13:53;4.50;;;2.20;;
39454;SDS011;25155;41.890;23.446;2023-02-28T16:16:22;4.25;;;2.30;;
39454;SDS011;25155;41.890;23.446;2023-02-28T16:18:51;5.25;;;2.80;;